Time;durP1;ratioP1;P1;durP2;ratioP2;P2;SDS_P1;SDS_P2;PMS_P1;PMS_P2;Temp;Humidity;BMP_temperature;BMP_pressure;BME280_temperature;BME280_humidity;BME280_pressure;Samples;Min_cycle;Max_cycle;Signal;HPM_P1;HPM_P2
2021/01/20 00:01:02;;;;;;;16.07;7.83;;;7.70;99.90;;;;;;5079965;28;37339;-77
2021/01/20 00:03:28;;;;;;;17.27;8.47;;;7.70;99.90;;;;;;5082137;28;38149;-77
2021/01/20 00:05:55;;;;;;;11.57;7.50;;;7.70;99.90;;;;;;5071585;28;39485;-77
2021/01/20 00:08:22;;;;;;;18.83;8.67;;;7.60;99.90;;;;;;5091782;28;38882;-78
2021/01/20 00:10:48;;;;;;;18.20;8.23;;;7.60;99.90;;;;;;5091562;28;37399;-78
2021/01/20 00:13:15;;;;;;;13.67;8.67;;;7.60;99.90;;;;;;5080718;28;40222;-77
2021/01/20 00:15:42;;;;;;;16.40;9.10;;;7.60;99.90;;;;;;5066402;28;39004;-77
2021/01/20 00:18:09;;;;;;;20.13;8.80;;;7.60;99.90;;;;;;5078059;28;36255;-76
2021/01/20 00:20:35;;;;;;;14.03;8.50;;;7.60;99.90;;;;;;5087967;28;36979;-78
2021/01/20 00:23:01;;;;;;;16.77;8.90;;;7.60;99.90;;;;;;5090867;28;39622;-77
2021/01/20 00:25:27;;;;;;;16.43;8.77;;;7.60;99.90;;;;;;5066288;28;47503;-76
2021/01/20 00:27:53;;;;;;;18.13;9.43;;;7.60;99.90;;;;;;5085031;28;40172;-78
2021/01/20 00:30:20;;;;;;;14.67;8.70;;;7.60;99.90;;;;;;5083808;28;38815;-77
2021/01/20 00:32:46;;;;;;;13.93;8.10;;;7.60;99.90;;;;;;5082641;28;38230;-76
2021/01/20 00:35:13;;;;;;;15.60;8.67;;;7.60;99.90;;;;;;5093304;28;40082;-78
2021/01/20 00:37:39;;;;;;;15.00;8.70;;;7.60;99.90;;;;;;5063882;28;38762;-77
2021/01/20 00:40:07;;;;;;;18.77;8.90;;;7.50;99.90;;;;;;5066061;28;37665;-78
2021/01/20 00:42:33;;;;;;;15.27;8.90;;;7.60;99.90;;;;;;5080283;28;47836;-77
2021/01/20 00:45:00;;;;;;;13.90;9.03;;;7.50;99.90;;;;;;5079399;28;39991;-77
2021/01/20 00:47:26;;;;;;;19.10;9.27;;;7.50;99.90;;;;;;5080375;28;38183;-78
2021/01/20 00:49:52;;;;;;;15.03;9.47;;;7.50;99.90;;;;;;5088460;28;36669;-78
2021/01/20 00:52:18;;;;;;;13.57;8.83;;;7.50;99.90;;;;;;5089692;28;37725;-76
2021/01/20 00:54:44;;;;;;;17.17;9.17;;;7.50;99.90;;;;;;5076744;28;39945;-78
2021/01/20 00:57:11;;;;;;;17.10;9.47;;;7.50;99.90;;;;;;5075535;28;38746;-77
2021/01/20 00:59:37;;;;;;;14.67;9.40;;;7.50;99.90;;;;;;5064640;28;38999;-77
2021/01/20 01:02:03;;;;;;;16.90;9.57;;;7.50;99.90;;;;;;5084509;28;38667;-77
2021/01/20 01:04:29;;;;;;;12.93;9.53;;;7.50;99.90;;;;;;5078014;28;40568;-78
2021/01/20 01:06:55;;;;;;;18.67;9.67;;;7.50;99.90;;;;;;5109976;28;38583;-78
2021/01/20 01:09:21;;;;;;;17.10;9.47;;;7.50;99.90;;;;;;5089529;28;37193;-77
2021/01/20 01:11:47;;;;;;;18.73;10.60;;;7.50;99.90;;;;;;5098662;28;38909;-77
2021/01/20 01:14:13;;;;;;;16.10;10.37;;;7.60;99.90;;;;;;5074289;28;40584;-77
2021/01/20 01:16:40;;;;;;;16.77;10.27;;;7.50;99.90;;;;;;5096905;28;38347;-77
2021/01/20 01:19:06;;;;;;;16.07;9.37;;;7.60;99.90;;;;;;5096139;28;35374;-77
2021/01/20 01:21:32;;;;;;;18.13;10.00;;;7.60;99.90;;;;;;5080813;28;39525;-77
2021/01/20 01:23:58;;;;;;;16.23;10.60;;;7.60;99.90;;;;;;5096886;28;39368;-77
2021/01/20 01:26:25;;;;;;;16.70;9.93;;;7.60;99.90;;;;;;5103414;28;38611;-77
2021/01/20 01:28:51;;;;;;;16.60;10.30;;;7.60;99.90;;;;;;5097537;28;37337;-76
2021/01/20 01:31:17;;;;;;;17.33;9.80;;;7.60;99.90;;;;;;5102490;28;38772;-77
2021/01/20 01:33:43;;;;;;;15.67;9.53;;;7.60;99.90;;;;;;5082419;28;37851;-76
2021/01/20 01:36:10;;;;;;;18.03;11.20;;;7.60;99.90;;;;;;5090342;28;39043;-77
2021/01/20 01:38:36;;;;;;;21.70;11.30;;;7.60;99.90;;;;;;5092995;28;36844;-77
2021/01/20 01:41:02;;;;;;;16.27;11.43;;;7.70;99.90;;;;;;5086185;28;38304;-76
2021/01/20 01:43:28;;;;;;;19.73;11.33;;;7.70;99.90;;;;;;5082655;28;38593;-77
2021/01/20 01:45:55;;;;;;;19.93;11.33;;;7.70;99.90;;;;;;5087207;28;38848;-77
2021/01/20 01:48:21;;;;;;;16.47;11.00;;;7.70;99.90;;;;;;5079357;28;38993;-76
2021/01/20 01:50:48;;;;;;;19.53;10.73;;;7.70;99.90;;;;;;5092636;28;38999;-77
2021/01/20 01:53:14;;;;;;;18.17;11.77;;;7.70;99.90;;;;;;5081087;28;40722;-76
2021/01/20 01:55:41;;;;;;;23.90;12.50;;;7.70;99.90;;;;;;5078278;28;40536;-77
2021/01/20 01:58:07;;;;;;;19.37;12.30;;;7.70;99.90;;;;;;5073749;27;35038;-76
2021/01/20 02:00:34;;;;;;;22.40;12.80;;;7.80;99.90;;;;;;5085507;28;39190;-76
2021/01/20 02:03:01;;;;;;;20.60;12.83;;;7.70;99.90;;;;;;5090394;28;40231;-77
2021/01/20 02:05:27;;;;;;;23.43;13.90;;;7.80;99.90;;;;;;5096655;28;48576;-77
2021/01/20 02:07:54;;;;;;;21.17;13.07;;;7.80;99.90;;;;;;5084400;28;39687;-77
2021/01/20 02:10:20;;;;;;;19.43;14.03;;;7.80;99.90;;;;;;5061813;28;39857;-77
2021/01/20 02:13:05;;;;;;;21.20;13.27;;;7.80;99.90;;;;;;5080941;28;38899;-76
2021/01/20 02:15:47;;;;;;;29.43;14.37;;;7.70;99.90;;;;;;5058904;28;47104;-76
2021/01/20 02:18:19;;;;;;;19.17;13.55;;;7.70;99.90;;;;;;5062903;28;37160;-76
2021/01/20 02:21:10;;;;;;;21.73;13.73;;;7.70;99.90;;;;;;5092807;28;40754;-76
2021/01/20 02:23:42;;;;;;;20.83;13.43;;;7.70;99.90;;;;;;5084272;28;48270;-76
2021/01/20 02:26:15;;;;;;;24.25;14.57;;;7.70;99.90;;;;;;5089817;28;38359;-76
2021/01/20 02:28:53;;;;;;;21.77;14.07;;;7.80;99.90;;;;;;5075638;28;36025;-75
2021/01/20 02:31:23;;;;;;;22.20;12.83;;;7.80;99.90;;;;;;5081597;28;38324;-76
2021/01/20 02:33:52;;;;;;;21.43;13.23;;;7.80;99.90;;;;;;5081895;28;41771;-76
2021/01/20 02:36:20;;;;;;;20.13;12.77;;;7.80;99.90;;;;;;5071385;28;39058;-76
2021/01/20 02:38:47;;;;;;;25.57;13.97;;;7.80;99.90;;;;;;5075638;28;38191;-76
2021/01/20 02:41:24;;;;;;;21.83;13.20;;;7.80;99.90;;;;;;5055454;28;39577;-76
2021/01/20 02:43:51;;;;;;;20.70;13.03;;;7.80;99.90;;;;;;5065000;28;40236;-77
2021/01/20 02:46:19;;;;;;;18.00;12.33;;;7.80;99.90;;;;;;5071919;28;39451;-77
2021/01/20 02:48:47;;;;;;;20.10;12.83;;;7.90;99.90;;;;;;5079359;28;38059;-76
2021/01/20 02:51:19;;;;;;;19.20;12.40;;;7.90;99.90;;;;;;5090361;28;39879;-77
2021/01/20 02:53:47;;;;;;;20.02;12.55;;;7.90;99.90;;;;;;5089113;28;39295;-76
2021/01/20 02:56:16;;;;;;;19.70;12.33;;;7.90;99.90;;;;;;5090561;28;39914;-77
2021/01/20 02:58:46;;;;;;;20.10;12.23;;;7.90;99.90;;;;;;5077124;28;35772;-76
2021/01/20 03:01:14;;;;;;;19.53;12.83;;;7.90;99.90;;;;;;5088592;28;38589;-77
2021/01/20 03:03:42;;;;;;;17.80;12.00;;;7.90;99.90;;;;;;5070856;28;40806;-76
2021/01/20 03:06:09;;;;;;;15.13;11.63;;;8.00;99.90;;;;;;5085060;28;37750;-76
2021/01/20 03:08:36;;;;;;;19.47;11.97;;;8.00;99.90;;;;;;5071328;28;38226;-76
2021/01/20 03:11:05;;;;;;;16.63;11.47;;;8.10;99.90;;;;;;5067515;28;38592;-77
2021/01/20 03:13:41;;;;;;;16.57;10.93;;;8.10;99.90;;;;;;5063316;28;39507;-77
2021/01/20 03:16:07;;;;;;;21.03;11.83;;;8.10;99.90;;;;;;5089992;28;38222;-75
2021/01/20 03:18:33;;;;;;;16.03;11.80;;;8.00;99.90;;;;;;5081125;28;38085;-76
2021/01/20 03:21:01;;;;;;;19.47;11.87;;;8.00;99.90;;;;;;5090647;27;40673;-76
2021/01/20 03:23:28;;;;;;;18.63;12.60;;;7.90;99.90;;;;;;5078917;28;47382;-76
2021/01/20 03:25:56;;;;;;;21.40;13.03;;;7.80;99.90;;;;;;5094787;28;20217;-76
2021/01/20 03:28:25;;;;;;;20.83;13.73;;;7.80;99.90;;;;;;5080213;28;36594;-77
2021/01/20 03:30:51;;;;;;;24.33;12.73;;;7.80;99.90;;;;;;5096366;28;38565;-76
2021/01/20 03:33:18;;;;;;;21.40;13.50;;;7.80;99.90;;;;;;5068769;28;40552;-77
2021/01/20 03:35:44;;;;;;;20.33;12.87;;;7.70;99.90;;;;;;5077174;28;39032;-76
2021/01/20 03:38:10;;;;;;;19.70;12.60;;;7.80;99.90;;;;;;5071816;28;37571;-78
2021/01/20 03:40:36;;;;;;;20.70;13.27;;;7.70;99.90;;;;;;5088604;28;38676;-77
2021/01/20 03:43:02;;;;;;;21.57;12.57;;;7.70;99.90;;;;;;5070499;28;37599;-78
2021/01/20 03:45:28;;;;;;;17.13;11.93;;;7.70;99.90;;;;;;5059974;28;40262;-77
2021/01/20 03:47:54;;;;;;;17.40;11.27;;;7.80;99.90;;;;;;5069677;28;38975;-78
2021/01/20 03:50:21;;;;;;;15.37;10.83;;;7.80;99.90;;;;;;5055405;28;39831;-77
2021/01/20 03:52:47;;;;;;;15.57;10.73;;;7.90;99.90;;;;;;5060369;28;39002;-77
2021/01/20 03:55:13;;;;;;;17.80;10.73;;;8.00;99.90;;;;;;5079912;28;36761;-78
2021/01/20 03:57:39;;;;;;;17.47;9.63;;;8.00;99.90;;;;;;5089204;28;37289;-77
2021/01/20 04:00:06;;;;;;;14.33;9.43;;;8.00;99.90;;;;;;5087193;28;37317;-77
2021/01/20 04:02:32;;;;;;;16.90;10.13;;;8.00;99.90;;;;;;5087189;28;48591;-78
2021/01/20 04:04:58;;;;;;;17.73;10.10;;;8.00;99.90;;;;;;5069058;28;40176;-78
2021/01/20 04:07:24;;;;;;;15.93;8.73;;;8.10;99.90;;;;;;5066202;28;38550;-77
2021/01/20 04:09:51;;;;;;;13.00;9.33;;;8.10;99.90;;;;;;5071371;28;39854;-77
2021/01/20 04:12:17;;;;;;;17.03;9.03;;;8.10;99.90;;;;;;5079218;28;39228;-77
2021/01/20 04:14:43;;;;;;;14.93;9.47;;;8.10;99.90;;;;;;5083202;28;38072;-76
2021/01/20 04:17:09;;;;;;;12.87;8.50;;;8.10;99.90;;;;;;5076138;28;37136;-76
2021/01/20 04:19:35;;;;;;;12.87;8.70;;;8.10;99.90;;;;;;5081016;28;37494;-77
2021/01/20 04:22:01;;;;;;;13.77;9.23;;;8.10;99.90;;;;;;5085432;28;38885;-76
2021/01/20 04:24:27;;;;;;;14.40;9.37;;;8.20;99.90;;;;;;5069214;28;38837;-76
2021/01/20 04:26:53;;;;;;;14.37;8.97;;;8.20;99.90;;;;;;5059473;28;35419;-76
2021/01/20 04:29:19;;;;;;;15.53;8.87;;;8.10;99.90;;;;;;5062819;28;39638;-77
2021/01/20 04:31:45;;;;;;;15.83;9.37;;;8.10;99.90;;;;;;5068634;28;38961;-77
2021/01/20 04:34:12;;;;;;;16.50;9.13;;;8.10;99.90;;;;;;5074586;28;38649;-77
2021/01/20 04:36:38;;;;;;;14.60;8.87;;;8.10;99.90;;;;;;5070468;28;35139;-77
2021/01/20 04:39:04;;;;;;;15.40;9.53;;;8.10;99.90;;;;;;5070696;28;40352;-77
2021/01/20 04:41:33;;;;;;;14.57;9.20;;;8.20;99.90;;;;;;5088784;28;38734;-76
2021/01/20 04:43:59;;;;;;;14.80;9.27;;;8.20;99.90;;;;;;5089586;28;37908;-77
2021/01/20 04:46:25;;;;;;;14.93;9.27;;;8.20;99.90;;;;;;5090080;28;37693;-75
2021/01/20 04:48:54;;;;;;;11.10;8.63;;;8.20;99.90;;;;;;5084118;28;40175;-76
2021/01/20 04:51:23;;;;;;;13.13;8.60;;;8.20;99.90;;;;;;5077272;28;37842;-77
2021/01/20 04:53:54;;;;;;;13.07;7.80;;;8.20;99.90;;;;;;5086990;28;37823;-76
2021/01/20 04:56:20;;;;;;;15.33;7.43;;;8.20;99.90;;;;;;5090372;28;35054;-76
2021/01/20 04:58:50;;;;;;;14.23;8.17;;;8.20;99.90;;;;;;5089577;28;39253;-77
2021/01/20 05:01:18;;;;;;;13.23;7.50;;;8.20;99.90;;;;;;5074278;28;38883;-77
2021/01/20 05:03:46;;;;;;;17.53;8.30;;;8.20;99.90;;;;;;5066775;28;39050;-77
2021/01/20 05:06:12;;;;;;;12.60;8.30;;;8.20;99.90;;;;;;5088313;28;37014;-77
2021/01/20 05:08:39;;;;;;;13.23;7.37;;;8.20;99.90;;;;;;5090643;28;38640;-77
2021/01/20 05:11:05;;;;;;;14.40;7.63;;;8.20;99.90;;;;;;5071593;28;39937;-76
2021/01/20 05:13:32;;;;;;;12.63;7.37;;;8.20;99.90;;;;;;5069811;28;38652;-76
2021/01/20 05:15:58;;;;;;;15.57;7.50;;;8.20;99.90;;;;;;5068707;28;37709;-77
2021/01/20 05:18:25;;;;;;;15.97;7.40;;;8.20;99.90;;;;;;5073315;28;39856;-76
2021/01/20 05:20:51;;;;;;;11.73;7.30;;;8.20;99.90;;;;;;5074027;28;38975;-76
2021/01/20 05:23:25;;;;;;;13.93;7.90;;;8.20;99.90;;;;;;5076769;28;39073;-76
2021/01/20 05:25:51;;;;;;;12.67;7.03;;;8.20;99.90;;;;;;5079928;28;38308;-75
2021/01/20 05:28:23;;;;;;;11.13;6.90;;;8.20;99.90;;;;;;5089587;28;39598;-76
2021/01/20 05:30:55;;;;;;;9.70;6.63;;;8.20;99.90;;;;;;5070497;28;37604;-77
2021/01/20 05:33:26;;;;;;;10.50;7.13;;;8.30;99.90;;;;;;5069413;28;37746;-76
2021/01/20 05:36:06;;;;;;;12.10;6.70;;;8.30;99.90;;;;;;5089859;28;36983;-77
2021/01/20 05:38:40;;;;;;;10.60;6.73;;;8.30;99.90;;;;;;5069670;28;47209;-76
2021/01/20 05:41:16;;;;;;;9.33;6.37;;;8.30;99.90;;;;;;5087359;28;38609;-78
2021/01/20 05:43:42;;;;;;;13.03;6.67;;;8.30;99.90;;;;;;5089961;28;38128;-77
2021/01/20 05:46:11;;;;;;;12.77;6.43;;;8.30;99.90;;;;;;5089113;28;37586;-77
2021/01/20 05:48:48;;;;;;;12.60;6.87;;;8.30;99.90;;;;;;5092300;28;39078;-77
2021/01/20 05:51:14;;;;;;;9.47;6.03;;;8.30;99.90;;;;;;5095769;28;38807;-77
2021/01/20 05:53:56;;;;;;;11.30;6.30;;;8.30;99.90;;;;;;5083313;28;38608;-77
2021/01/20 05:56:26;;;;;;;9.60;5.82;;;8.30;99.90;;;;;;5074675;28;37064;-78
2021/01/20 05:58:53;;;;;;;10.47;5.80;;;8.30;99.90;;;;;;5072467;28;37546;-77
2021/01/20 06:01:19;;;;;;;9.20;5.60;;;8.40;99.90;;;;;;5087753;28;38305;-76
2021/01/20 06:03:46;;;;;;;8.63;5.67;;;8.40;99.90;;;;;;5091417;28;38582;-77
2021/01/20 06:06:15;;;;;;;9.97;6.67;;;8.40;99.90;;;;;;5092025;28;38027;-77
2021/01/20 06:08:42;;;;;;;7.10;5.23;;;8.40;99.90;;;;;;5082042;28;39519;-76
2021/01/20 06:11:08;;;;;;;10.70;5.43;;;8.40;99.90;;;;;;5094312;28;38482;-76
2021/01/20 06:13:35;;;;;;;10.17;5.77;;;8.40;99.90;;;;;;5086662;28;38288;-76
2021/01/20 06:16:34;;;;;;;10.17;5.67;;;8.50;99.90;;;;;;5093706;28;38421;-77
2021/01/20 06:19:08;;;;;;;9.33;5.57;;;8.40;99.90;;;;;;5106078;28;38925;-76
2021/01/20 06:21:36;;;;;;;11.13;6.03;;;8.40;99.90;;;;;;5099688;28;48632;-76
2021/01/20 06:24:31;;;;;;;11.03;5.53;;;8.40;99.90;;;;;;5082930;28;38310;-76
2021/01/20 06:27:05;;;;;;;10.27;5.53;;;8.40;99.90;;;;;;5070779;28;37425;-76
2021/01/20 06:29:37;;;;;;;13.33;6.57;;;8.40;99.90;;;;;;5085856;28;47985;-76
2021/01/20 06:32:04;;;;;;;10.23;5.85;;;8.40;99.90;;;;;;5095291;28;38157;-76
2021/01/20 06:34:30;;;;;;;7.13;4.93;;;8.50;99.90;;;;;;5089103;28;39437;-76
2021/01/20 06:36:56;;;;;;;7.53;5.07;;;8.50;99.90;;;;;;5076338;28;35484;-76
2021/01/20 06:39:29;;;;;;;9.90;5.20;;;8.50;99.90;;;;;;5097508;28;39247;-76
2021/01/20 06:41:55;;;;;;;;;;;8.50;99.90;;;;;;5084528;28;39839;-76
2021/01/20 06:44:21;;;;;;;9.43;4.73;;;8.40;99.90;;;;;;5096395;28;38609;-77
2021/01/20 06:46:56;;;;;;;7.40;4.97;;;8.40;99.90;;;;;;5101636;28;37274;-76
2021/01/20 06:49:30;;;;;;;6.23;4.70;;;8.50;99.90;;;;;;5073064;28;39962;-76
2021/01/20 06:52:06;;;;;;;6.70;5.17;;;8.50;99.90;;;;;;5079500;28;40105;-77
2021/01/20 06:54:37;;;;;;;10.53;5.77;;;8.50;99.90;;;;;;5075005;28;47417;-77
2021/01/20 06:57:25;;;;;;;10.27;5.33;;;8.50;99.90;;;;;;5089160;27;38080;-76
2021/01/20 07:00:14;;;;;;;8.30;5.17;;;8.50;99.90;;;;;;5078105;28;39546;-76
2021/01/20 07:03:00;;;;;;;9.13;5.87;;;8.50;99.90;;;;;;5070829;28;47453;-75
2021/01/20 07:05:35;;;;;;;9.47;5.10;;;8.50;99.90;;;;;;5071812;28;47742;-76
2021/01/20 07:08:02;;;;;;;8.70;4.83;;;8.50;99.90;;;;;;5082645;28;35914;-77
2021/01/20 07:10:50;;;;;;;7.73;5.30;;;8.50;99.90;;;;;;5073586;28;39306;-76
2021/01/20 07:13:18;;;;;;;11.23;5.80;;;8.50;99.90;;;;;;5074985;28;39642;-77
2021/01/20 07:15:46;;;;;;;7.60;5.17;;;8.50;99.90;;;;;;5083836;28;40353;-78
2021/01/20 07:18:14;;;;;;;7.87;5.10;;;8.50;99.90;;;;;;5078899;28;36117;-77
2021/01/20 07:20:42;;;;;;;10.10;5.93;;;8.50;99.90;;;;;;5078996;28;40109;-77
2021/01/20 07:23:09;;;;;;;9.40;5.40;;;8.40;99.90;;;;;;5093986;28;39464;-76
2021/01/20 07:25:35;;;;;;;8.77;5.10;;;8.40;99.90;;;;;;5074078;28;38423;-77
2021/01/20 07:28:04;;;;;;;10.97;5.47;;;8.50;99.90;;;;;;5081727;28;38336;-76
2021/01/20 07:30:30;;;;;;;10.40;5.30;;;8.40;99.90;;;;;;5098309;28;37877;-77
2021/01/20 07:32:57;;;;;;;8.83;4.73;;;8.40;99.90;;;;;;5082104;28;39001;-78
2021/01/20 07:35:26;;;;;;;7.60;4.63;;;8.50;99.90;;;;;;5073776;28;39945;-76
2021/01/20 07:38:00;;;;;;;6.70;4.90;;;8.40;99.90;;;;;;5071699;28;37274;-77
2021/01/20 07:40:41;;;;;;;7.57;4.50;;;8.40;99.90;;;;;;5072817;28;38801;-77
2021/01/20 07:43:07;;;;;;;10.83;5.00;;;8.50;99.90;;;;;;5083288;28;39102;-77
2021/01/20 07:45:34;;;;;;;6.53;4.10;;;8.50;99.90;;;;;;5069734;28;39219;-77
2021/01/20 07:48:02;;;;;;;7.17;4.40;;;8.50;99.90;;;;;;5083771;28;37500;-77
2021/01/20 07:50:46;;;;;;;5.40;3.77;;;8.50;99.90;;;;;;5077594;28;48767;-77
2021/01/20 07:53:17;;;;;;;6.13;3.87;;;8.60;99.90;;;;;;5077189;28;38566;-76
2021/01/20 07:55:44;;;;;;;9.37;4.13;;;8.50;99.90;;;;;;5087663;28;40424;-76
2021/01/20 07:58:11;;;;;;;8.63;3.80;;;8.50;99.90;;;;;;5078392;28;38763;-77
2021/01/20 08:00:41;;;;;;;6.07;3.53;;;8.50;99.90;;;;;;5076854;28;39162;-78
2021/01/20 08:03:07;;;;;;;7.30;3.83;;;8.50;99.90;;;;;;5083756;28;37719;-76
2021/01/20 08:05:35;;;;;;;8.87;4.10;;;8.50;99.90;;;;;;5078729;28;38784;-75
2021/01/20 08:08:12;;;;;;;6.37;3.73;;;8.60;99.90;;;;;;5076425;28;38032;-77
2021/01/20 08:10:40;;;;;;;7.33;3.90;;;8.60;99.90;;;;;;5075062;28;49492;-75
2021/01/20 08:13:09;;;;;;;5.43;3.37;;;8.60;99.90;;;;;;5077602;28;37523;-77
2021/01/20 08:15:39;;;;;;;7.60;3.70;;;8.60;99.90;;;;;;5075793;28;38472;-75
2021/01/20 08:18:11;;;;;;;9.60;3.67;;;8.60;99.90;;;;;;5084549;28;38058;-76
2021/01/20 08:20:38;;;;;;;;;;;8.60;99.90;;;;;;5078639;28;43030;-76
2021/01/20 08:23:10;;;;;;;7.93;3.67;;;8.60;99.90;;;;;;5069898;28;37858;-77
2021/01/20 08:25:37;;;;;;;6.77;4.30;;;8.60;99.90;;;;;;5062274;28;38545;-76
2021/01/20 08:28:16;;;;;;;5.00;3.33;;;8.50;99.90;;;;;;5061322;28;36385;-76
2021/01/20 08:30:42;;;;;;;6.37;3.00;;;8.60;99.90;;;;;;5076247;28;38144;-77
2021/01/20 08:33:08;;;;;;;7.20;3.50;;;8.60;99.90;;;;;;5067830;28;39319;-76
2021/01/20 08:35:38;;;;;;;8.60;3.60;;;8.60;99.90;;;;;;5078499;28;39460;-77
2021/01/20 08:38:26;;;;;;;6.23;3.40;;;8.60;99.90;;;;;;5059392;28;36748;-77
2021/01/20 08:41:24;;;;;;;8.57;3.13;;;8.50;99.90;;;;;;5078539;28;39637;-77
2021/01/20 08:44:14;;;;;;;6.37;3.37;;;8.50;99.90;;;;;;5046809;28;47934;-77
2021/01/20 08:46:40;;;;;;;6.33;3.40;;;8.50;99.90;;;;;;5055498;28;48573;-76
2021/01/20 08:49:07;;;;;;;7.57;2.80;;;8.50;99.90;;;;;;5052427;27;38526;-76
2021/01/20 08:51:33;;;;;;;6.17;3.17;;;8.50;99.90;;;;;;5074267;28;37830;-76
2021/01/20 08:54:10;;;;;;;4.03;2.83;;;8.50;99.90;;;;;;5069067;28;39387;-75
2021/01/20 08:56:36;;;;;;;5.33;2.63;;;8.50;99.90;;;;;;5034120;28;47277;-76
2021/01/20 08:59:02;;;;;;;3.93;2.80;;;8.40;99.90;;;;;;5039728;28;38853;-75
2021/01/20 09:01:29;;;;;;;8.73;2.93;;;8.40;99.90;;;;;;5053354;28;39128;-75
2021/01/20 09:03:58;;;;;;;8.50;3.03;;;8.40;99.90;;;;;;5033658;28;37869;-75
2021/01/20 09:06:26;;;;;;;9.67;3.40;;;8.40;99.90;;;;;;5038773;28;40195;-77
2021/01/20 09:08:56;;;;;;;6.23;2.97;;;8.40;99.90;;;;;;5041329;28;37203;-76
2021/01/20 09:11:23;;;;;;;4.00;2.90;;;8.50;99.90;;;;;;5038018;28;38533;-77
2021/01/20 09:13:54;;;;;;;7.50;2.87;;;8.50;99.90;;;;;;5037350;28;38892;-77
2021/01/20 09:16:30;;;;;;;4.57;2.73;;;8.40;99.90;;;;;;5052184;28;37399;-77
2021/01/20 09:18:57;;;;;;;5.23;3.00;;;8.50;99.90;;;;;;5055829;28;37077;-77
2021/01/20 09:21:23;;;;;;;4.10;2.73;;;8.50;99.90;;;;;;5057719;28;40918;-77
2021/01/20 09:23:50;;;;;;;5.33;2.60;;;8.60;99.90;;;;;;5069733;28;39837;-76
2021/01/20 09:26:16;;;;;;;3.50;2.40;;;8.60;99.90;;;;;;5074777;28;37722;-77
2021/01/20 09:28:43;;;;;;;4.87;2.30;;;8.60;99.90;;;;;;5080442;28;37732;-75
2021/01/20 09:31:09;;;;;;;5.23;2.20;;;8.60;99.90;;;;;;5078534;28;40576;-77
2021/01/20 09:33:36;;;;;;;3.93;2.40;;;8.60;99.90;;;;;;5081295;28;40056;-76
2021/01/20 09:36:03;;;;;;;4.33;2.47;;;8.70;99.90;;;;;;5079182;28;37690;-76
2021/01/20 09:38:29;;;;;;;4.60;2.37;;;8.80;99.90;;;;;;5057454;28;36064;-75
2021/01/20 09:40:55;;;;;;;4.00;2.47;;;8.80;99.90;;;;;;5090949;28;38952;-75
2021/01/20 09:43:23;;;;;;;4.90;2.20;;;8.80;99.90;;;;;;5091921;28;39192;-77
2021/01/20 09:45:49;;;;;;;3.63;1.87;;;8.80;99.90;;;;;;5078570;28;38239;-77
2021/01/20 09:48:16;;;;;;;2.63;2.10;;;8.80;99.90;;;;;;5064736;28;38520;-75
2021/01/20 09:50:44;;;;;;;4.23;2.37;;;8.90;99.90;;;;;;5074580;28;38442;-74
2021/01/20 09:53:12;;;;;;;3.10;2.00;;;8.90;99.90;;;;;;5079724;28;38066;-75
2021/01/20 09:55:38;;;;;;;5.47;2.63;;;8.90;99.90;;;;;;5072292;28;39239;-76
2021/01/20 09:58:04;;;;;;;6.30;2.37;;;8.90;99.90;;;;;;5075282;28;36852;-76
2021/01/20 10:00:34;;;;;;;4.13;2.37;;;8.90;99.90;;;;;;5078688;28;39294;-76
2021/01/20 10:03:02;;;;;;;3.33;2.30;;;8.90;99.90;;;;;;5098001;28;40558;-77
2021/01/20 10:05:28;;;;;;;4.23;2.13;;;8.90;99.90;;;;;;5072244;28;48631;-75
2021/01/20 10:07:54;;;;;;;4.77;2.47;;;9.00;99.90;;;;;;5080679;28;37725;-76
2021/01/20 10:10:21;;;;;;;4.57;2.20;;;9.00;99.90;;;;;;5067957;28;38771;-77
2021/01/20 10:12:47;;;;;;;4.30;2.30;;;9.00;99.90;;;;;;5075468;28;39141;-76
2021/01/20 10:15:13;;;;;;;5.33;2.67;;;9.00;99.90;;;;;;5086996;28;38893;-76
2021/01/20 10:17:40;;;;;;;4.47;2.50;;;9.10;99.90;;;;;;5073391;28;37100;-77
2021/01/20 10:20:07;;;;;;;4.47;2.50;;;9.00;99.90;;;;;;5076162;28;39337;-77
2021/01/20 10:22:33;;;;;;;3.57;2.60;;;9.00;99.90;;;;;;5076081;28;39755;-76
2021/01/20 10:25:00;;;;;;;3.73;2.30;;;8.90;99.90;;;;;;5094280;27;39438;-77
2021/01/20 10:27:26;;;;;;;2.13;1.90;;;8.90;99.90;;;;;;5098299;28;36865;-77
2021/01/20 10:29:52;;;;;;;3.57;2.60;;;8.80;99.90;;;;;;5083021;28;40613;-77
2021/01/20 10:32:18;;;;;;;2.90;2.00;;;8.70;99.90;;;;;;5083797;28;40315;-77
2021/01/20 10:34:44;;;;;;;3.33;2.27;;;8.60;99.90;;;;;;5090961;27;36746;-77
2021/01/20 10:37:10;;;;;;;3.90;2.60;;;8.60;99.90;;;;;;5078575;28;38119;-77
2021/01/20 10:39:36;;;;;;;6.60;2.40;;;8.50;99.90;;;;;;5070297;28;39081;-77
2021/01/20 10:42:02;;;;;;;5.40;2.67;;;8.50;99.90;;;;;;5085818;28;38960;-78
2021/01/20 10:44:28;;;;;;;5.40;2.40;;;8.50;99.90;;;;;;5073447;28;40096;-76
2021/01/20 10:46:55;;;;;;;26.63;3.30;;;8.60;99.90;;;;;;5093421;28;38481;-76
2021/01/20 10:49:24;;;;;;;4.07;2.53;;;8.70;99.90;;;;;;5074721;28;37902;-77
2021/01/20 10:51:51;;;;;;;3.63;2.30;;;8.80;99.90;;;;;;5095127;28;39800;-77
2021/01/20 10:54:18;;;;;;;6.17;2.50;;;8.90;99.90;;;;;;5080055;28;37545;-77
2021/01/20 10:56:44;;;;;;;3.57;2.30;;;9.00;99.90;;;;;;5065394;28;37712;-77
2021/01/20 10:59:10;;;;;;;5.67;2.57;;;9.10;99.90;;;;;;5059028;28;38446;-78
2021/01/20 11:01:37;;;;;;;6.20;2.50;;;9.10;99.90;;;;;;5066681;28;41483;-77
2021/01/20 11:04:03;;;;;;;4.10;2.43;;;9.10;99.90;;;;;;5078370;28;39295;-77
2021/01/20 11:06:30;;;;;;;4.97;2.00;;;9.10;99.90;;;;;;5090808;28;38913;-78
2021/01/20 11:08:59;;;;;;;6.20;2.30;;;9.10;99.90;;;;;;5066612;28;40916;-77
2021/01/20 11:11:26;;;;;;;4.33;1.93;;;9.00;99.90;;;;;;5074713;28;40179;-78
2021/01/20 11:13:52;;;;;;;4.67;2.50;;;9.00;99.90;;;;;;5068952;28;39135;-77
2021/01/20 11:16:18;;;;;;;8.60;2.90;;;8.90;99.90;;;;;;5086372;28;38217;-77
2021/01/20 11:18:44;;;;;;;9.43;2.87;;;8.80;99.90;;;;;;5093448;28;39201;-76
2021/01/20 11:21:14;;;;;;;3.93;2.80;;;8.70;99.90;;;;;;5076204;28;39345;-77
2021/01/20 11:23:45;;;;;;;2.77;2.13;;;8.70;99.90;;;;;;5089418;28;38126;-77
2021/01/20 11:26:11;;;;;;;4.20;2.30;;;8.60;99.90;;;;;;5082253;28;37560;-77
2021/01/20 11:28:37;;;;;;;8.67;3.37;;;8.70;99.90;;;;;;5093478;28;39516;-77
2021/01/20 11:31:03;;;;;;;3.93;2.47;;;8.80;99.90;;;;;;5085223;28;37794;-78
2021/01/20 11:33:30;;;;;;;5.27;2.20;;;8.80;99.90;;;;;;5081340;28;39426;-76
2021/01/20 11:35:56;;;;;;;5.03;2.47;;;8.90;99.90;;;;;;5072376;28;37950;-77
2021/01/20 11:38:22;;;;;;;5.53;2.57;;;8.90;99.90;;;;;;5074757;28;38774;-77
2021/01/20 11:40:48;;;;;;;4.87;2.10;;;9.00;99.90;;;;;;5065454;28;39465;-76
2021/01/20 11:43:14;;;;;;;4.13;2.40;;;8.90;99.90;;;;;;5087835;27;39995;-76
2021/01/20 11:45:40;;;;;;;3.87;2.20;;;8.90;99.90;;;;;;5080357;28;37699;-76
2021/01/20 11:48:07;;;;;;;4.20;2.10;;;9.00;99.90;;;;;;5071144;28;37432;-77
2021/01/20 11:50:33;;;;;;;7.10;2.37;;;9.00;99.90;;;;;;5065913;28;40026;-77
2021/01/20 11:53:00;;;;;;;6.10;2.20;;;9.00;99.90;;;;;;5081992;28;38478;-76
2021/01/20 11:55:26;;;;;;;4.23;2.57;;;9.00;99.90;;;;;;5088669;28;36387;-77
2021/01/20 11:57:52;;;;;;;4.50;2.27;;;8.90;99.90;;;;;;5081539;28;38139;-76
2021/01/20 12:00:20;;;;;;;8.03;2.43;;;8.90;99.90;;;;;;5077170;28;39119;-77
2021/01/20 12:02:46;;;;;;;4.37;2.17;;;9.00;99.90;;;;;;5080676;28;38582;-77
2021/01/20 12:05:14;;;;;;;7.37;2.27;;;9.00;99.90;;;;;;5087992;28;38050;-77
2021/01/20 12:07:44;;;;;;;4.03;2.30;;;9.00;99.90;;;;;;5094134;28;38965;-77
2021/01/20 12:10:12;;;;;;;5.10;2.87;;;9.10;99.90;;;;;;5077530;28;39362;-77
2021/01/20 12:12:39;;;;;;;7.50;2.27;;;9.10;99.90;;;;;;5065288;28;38761;-78
2021/01/20 12:15:05;;;;;;;3.30;2.13;;;9.10;99.90;;;;;;5073725;28;37035;-78
2021/01/20 12:17:32;;;;;;;4.87;2.13;;;9.20;99.90;;;;;;5073247;28;37582;-77
2021/01/20 12:19:59;;;;;;;3.90;1.80;;;9.20;99.90;;;;;;5084213;28;39050;-77
2021/01/20 12:22:25;;;;;;;4.90;2.50;;;9.20;99.90;;;;;;5090881;28;40536;-77
2021/01/20 12:24:51;;;;;;;6.40;2.43;;;9.30;99.90;;;;;;5058252;28;38937;-77
2021/01/20 12:27:17;;;;;;;4.67;2.10;;;9.30;99.90;;;;;;5068426;28;39404;-78
2021/01/20 12:29:43;;;;;;;7.83;2.47;;;9.30;99.90;;;;;;5070811;28;39179;-77
2021/01/20 12:32:09;;;;;;;4.00;1.90;;;9.30;99.90;;;;;;5071992;28;38607;-76
2021/01/20 12:34:35;;;;;;;6.23;2.17;;;9.30;99.90;;;;;;5076609;28;37785;-77
2021/01/20 12:37:02;;;;;;;3.70;2.00;;;9.40;99.90;;;;;;5078667;28;37881;-76
2021/01/20 12:39:28;;;;;;;5.87;2.23;;;9.40;99.90;;;;;;5091849;28;38865;-77
2021/01/20 12:41:54;;;;;;;3.57;1.60;;;9.40;99.90;;;;;;5078411;28;37750;-77
2021/01/20 12:44:21;;;;;;;4.23;2.10;;;9.40;99.90;;;;;;5075318;28;38210;-76
2021/01/20 12:46:47;;;;;;;3.87;1.93;;;9.50;99.90;;;;;;5063177;28;40685;-76
2021/01/20 12:49:13;;;;;;;3.87;2.17;;;9.50;99.90;;;;;;5066759;28;39139;-76
2021/01/20 12:51:39;;;;;;;6.13;2.50;;;9.50;99.90;;;;;;5080111;28;37364;-77
2021/01/20 12:54:05;;;;;;;7.70;2.53;;;9.60;99.90;;;;;;5072795;28;38187;-76
2021/01/20 12:56:31;;;;;;;3.37;2.30;;;9.60;99.90;;;;;;5084068;28;39805;-76